createdAt,value
2023-05-05T00:00:26.877Z,-2.25
2023-05-05T00:03:49.268Z,-2.25
2023-05-05T00:07:12.692Z,-2.27
2023-05-05T00:10:34.458Z,-2.32
2023-05-05T00:13:56.277Z,-2.36
2023-05-05T00:17:17.989Z,-2.39
2023-05-05T00:20:40.004Z,-2.42
2023-05-05T00:24:03.263Z,-2.46
2023-05-05T00:27:25.254Z,-2.50
2023-05-05T00:30:47.343Z,-2.53
2023-05-05T00:34:09.416Z,-2.54
2023-05-05T00:37:31.496Z,-2.56
2023-05-05T00:40:54.682Z,-2.58
2023-05-05T00:44:16.941Z,-2.62
2023-05-05T00:47:39.456Z,-2.67
2023-05-05T00:51:01.143Z,-2.72
2023-05-05T00:54:22.923Z,-2.76
2023-05-05T00:57:46.465Z,-2.78
2023-05-05T01:01:08.461Z,-2.82
2023-05-05T01:04:30.143Z,-2.86
2023-05-05T01:08:16.900Z,-2.90
2023-05-05T01:11:47.482Z,-2.94
2023-05-05T01:15:23.954Z,-2.95
2023-05-05T01:18:55.077Z,-2.98
2023-05-05T01:22:21.957Z,-3.00
2023-05-05T01:26:04.180Z,-3.02
2023-05-05T01:29:42.603Z,-3.04
2023-05-05T01:33:09.609Z,-3.07
2023-05-05T01:36:37.491Z,-3.11
2023-05-05T01:40:05.288Z,-3.14
2023-05-05T01:43:30.860Z,-3.16
2023-05-05T01:46:54.613Z,-3.23
2023-05-05T01:50:19.324Z,-3.22
2023-05-05T01:53:41.842Z,-3.27
2023-05-05T01:57:06.056Z,-3.32
2023-05-05T02:00:29.307Z,-3.32
2023-05-05T02:03:53.822Z,-3.34
2023-05-05T02:07:18.336Z,-3.54
2023-05-05T02:10:41.510Z,-3.38
2023-05-05T02:14:04.362Z,-3.36
2023-05-05T02:17:28.245Z,-3.40
2023-05-05T02:20:50.130Z,-3.42
2023-05-05T02:24:13.555Z,-3.41
2023-05-05T02:27:37.694Z,-3.45
2023-05-05T02:31:02.140Z,-3.42
2023-05-05T02:34:27.802Z,-3.43
2023-05-05T02:37:52.972Z,-3.43
2023-05-05T02:41:19.724Z,-3.45
2023-05-05T02:44:43.875Z,-3.44
2023-05-05T02:48:06.216Z,-3.43
2023-05-05T02:51:28.973Z,-3.44
2023-05-05T02:54:51.286Z,-3.46
2023-05-05T02:58:23.129Z,-3.43
2023-05-05T03:01:58.004Z,-3.39
2023-05-05T03:05:26.502Z,-3.37
2023-05-05T03:08:55.124Z,-3.32
2023-05-05T03:12:21.855Z,-3.29
2023-05-05T03:15:50.713Z,-3.25
2023-05-05T03:19:14.207Z,-3.22
2023-05-05T03:22:37.483Z,-3.19
2023-05-05T03:25:59.612Z,-3.18
2023-05-05T03:29:21.502Z,-3.16
2023-05-05T03:32:44.714Z,-3.25
2023-05-05T03:36:07.163Z,-3.10
2023-05-05T03:39:28.910Z,-3.07
2023-05-05T03:42:50.913Z,-3.01
2023-05-05T03:46:12.946Z,-2.91
2023-05-05T03:49:36.228Z,-2.76
2023-05-05T03:52:58.207Z,-2.56
2023-05-05T03:56:19.966Z,-2.34
2023-05-05T03:59:42.181Z,-2.17
2023-05-05T04:03:04.240Z,-1.97
2023-05-05T04:06:27.740Z,-1.82
2023-05-05T04:09:49.690Z,-1.65
2023-05-05T04:13:12.017Z,-1.45
2023-05-05T04:16:34.018Z,-1.26
2023-05-05T04:19:55.844Z,-1.14
2023-05-05T04:23:18.883Z,-0.98
2023-05-05T04:26:41.720Z,-0.84
2023-05-05T04:30:03.636Z,-0.70
2023-05-05T04:33:25.353Z,-0.56
2023-05-05T04:36:47.190Z,-0.50
2023-05-05T04:40:11.410Z,-0.35
2023-05-05T04:43:33.569Z,-0.17
2023-05-05T04:46:55.334Z,-0.03
2023-05-05T04:50:17.784Z,0.08
2023-05-05T04:53:40.031Z,0.16
2023-05-05T04:57:04.118Z,0.33
2023-05-05T05:00:26.113Z,0.56
2023-05-05T05:03:47.832Z,0.98
2023-05-05T05:07:09.452Z,1.28
2023-05-05T05:10:31.380Z,1.33
2023-05-05T05:13:55.026Z,1.53
2023-05-05T05:17:16.862Z,1.89
2023-05-05T05:20:38.757Z,2.26
2023-05-05T05:24:00.604Z,2.44
2023-05-05T05:27:22.529Z,2.46
2023-05-05T05:30:45.771Z,2.46
2023-05-05T05:34:07.797Z,2.47
2023-05-05T05:37:31.158Z,2.55
2023-05-05T05:40:54.605Z,2.58
2023-05-05T05:44:16.625Z,2.49
2023-05-05T05:47:39.886Z,2.28
2023-05-05T05:51:02.610Z,2.18
2023-05-05T05:54:24.431Z,2.34
2023-05-05T05:57:46.018Z,2.56
2023-05-05T06:01:08.046Z,2.77
2023-05-05T06:04:31.820Z,2.99
2023-05-05T06:07:53.800Z,3.13
2023-05-05T06:11:15.948Z,3.24
2023-05-05T06:14:37.666Z,3.27
2023-05-05T06:17:59.403Z,3.35
2023-05-05T06:21:22.860Z,3.47
2023-05-05T06:24:45.237Z,3.56
2023-05-05T06:28:07.388Z,3.82
2023-05-05T06:31:29.357Z,3.92
2023-05-05T06:34:51.195Z,3.73
2023-05-05T06:38:14.877Z,3.84
2023-05-05T06:41:36.637Z,3.82
2023-05-05T06:44:58.424Z,3.89
2023-05-05T06:48:20.524Z,4.05
2023-05-05T06:51:42.941Z,4.18
2023-05-05T06:55:07.057Z,4.61
2023-05-05T06:58:29.109Z,4.83
2023-05-05T07:01:51.951Z,4.65
2023-05-05T07:05:13.901Z,4.29
2023-05-05T07:08:35.542Z,4.02
2023-05-05T07:11:58.790Z,3.87
2023-05-05T07:15:28.528Z,4.16
2023-05-05T07:18:50.794Z,4.43
2023-05-05T07:22:12.766Z,4.67
2023-05-05T07:25:34.841Z,4.65
2023-05-05T07:28:59.186Z,4.43
2023-05-05T07:32:21.480Z,4.15
2023-05-05T07:35:43.200Z,3.87
2023-05-05T07:39:05.265Z,3.88
2023-05-05T07:42:27.005Z,3.84
2023-05-05T07:45:50.409Z,3.83
2023-05-05T07:49:12.351Z,3.90
2023-05-05T07:52:46.109Z,4.03
2023-05-05T07:56:09.962Z,4.13
2023-05-05T07:59:31.563Z,4.19
2023-05-05T08:02:55.412Z,4.27
2023-05-05T08:06:21.906Z,4.29
2023-05-05T08:09:43.667Z,4.22
2023-05-05T08:13:05.586Z,4.09
2023-05-05T08:16:27.948Z,4.05
2023-05-05T08:19:54.496Z,4.01
2023-05-05T08:23:16.334Z,4.02
2023-05-05T08:26:38.186Z,4.12
2023-05-05T08:30:00.047Z,4.20
2023-05-05T08:33:21.982Z,4.40
2023-05-05T08:36:45.465Z,4.44
2023-05-05T08:40:08.667Z,4.49
2023-05-05T08:43:30.689Z,4.29
2023-05-05T08:46:53.365Z,4.52
2023-05-05T08:50:16.063Z,4.57
2023-05-05T08:53:47.855Z,4.64
2023-05-05T08:57:11.708Z,4.69
2023-05-05T09:00:34.778Z,4.77
2023-05-05T09:03:58.594Z,4.82
2023-05-05T09:07:20.554Z,4.94
2023-05-05T09:10:44.922Z,5.22
2023-05-05T09:17:46.152Z,5.47
2023-05-05T09:21:20.856Z,5.50
2023-05-05T09:24:56.958Z,5.29
2023-05-05T09:28:20.218Z,4.79
2023-05-05T09:31:42.226Z,4.90
2023-05-05T09:35:06.290Z,4.95
2023-05-05T09:38:28.322Z,5.03
2023-05-05T09:41:50.173Z,4.94
2023-05-05T09:45:28.847Z,5.00
2023-05-05T09:48:50.627Z,5.07
2023-05-05T09:52:16.943Z,5.10
2023-05-05T09:55:39.319Z,5.38
2023-05-05T09:59:09.834Z,5.66
2023-05-05T10:02:34.357Z,5.91
2023-05-05T10:05:57.657Z,5.99
2023-05-05T10:09:19.378Z,6.01
2023-05-05T10:12:42.317Z,6.02
2023-05-05T10:16:05.816Z,6.11
2023-05-05T10:19:32.528Z,6.13
2023-05-05T10:22:56.196Z,6.00
2023-05-05T10:26:21.145Z,6.00
2023-05-05T10:29:53.504Z,5.97
2023-05-05T10:33:31.516Z,6.03
2023-05-05T10:37:00.239Z,6.04
2023-05-05T10:40:23.585Z,5.87
2023-05-05T10:43:47.186Z,5.79
2023-05-05T10:47:10.426Z,5.87
2023-05-05T10:50:38.155Z,5.81
2023-05-05T10:54:10.510Z,5.66
2023-05-05T10:57:36.654Z,5.63
2023-05-05T11:00:58.647Z,5.59
2023-05-05T11:04:22.117Z,5.48
2023-05-05T11:07:44.491Z,5.46
2023-05-05T11:11:08.083Z,5.60
2023-05-05T11:14:29.941Z,5.63
2023-05-05T11:17:51.834Z,5.74
2023-05-05T11:21:17.603Z,5.61
2023-05-05T11:24:39.922Z,5.62
2023-05-05T11:28:10.268Z,5.64
2023-05-05T11:31:32.947Z,5.58
2023-05-05T11:34:54.682Z,5.53
2023-05-05T11:38:19.335Z,5.44
2023-05-05T11:41:57.956Z,5.46
2023-05-05T11:45:25.775Z,5.60
2023-05-05T11:48:48.294Z,5.55
2023-05-05T11:52:12.574Z,5.51
2023-05-05T11:55:34.528Z,5.47
2023-05-05T11:59:11.279Z,5.27
2023-05-05T12:02:34.673Z,5.12
2023-05-05T12:05:56.862Z,5.04
2023-05-05T12:09:19.623Z,5.04
2023-05-05T12:12:42.412Z,5.13
2023-05-05T12:16:11.219Z,5.24
2023-05-05T12:19:34.376Z,5.26
2023-05-05T12:23:01.339Z,5.17
2023-05-05T12:26:28.165Z,5.07
2023-05-05T12:29:50.085Z,5.06
2023-05-05T12:33:11.749Z,5.18
2023-05-05T12:36:36.598Z,5.23
2023-05-05T12:39:58.684Z,5.28
2023-05-05T12:43:31.566Z,5.27
2023-05-05T12:46:54.566Z,5.31
2023-05-05T12:50:16.714Z,5.23
2023-05-05T12:53:40.005Z,5.25
2023-05-05T12:57:12.849Z,5.21
2023-05-05T13:00:35.059Z,5.19
2023-05-05T13:04:14.052Z,5.10
2023-05-05T13:07:35.808Z,5.02
2023-05-05T13:10:59.475Z,4.97
2023-05-05T13:14:21.361Z,5.04
2023-05-05T13:17:43.162Z,5.16
2023-05-05T13:21:04.864Z,5.29
2023-05-05T13:24:42.247Z,5.22
2023-05-05T13:28:06.180Z,5.19
2023-05-05T13:31:28.425Z,5.07
2023-05-05T13:34:50.178Z,4.97
2023-05-05T13:38:12.610Z,4.88
2023-05-05T13:41:34.778Z,4.89
2023-05-05T13:44:57.932Z,4.89
2023-05-05T13:48:20.019Z,4.92
2023-05-05T13:51:41.817Z,5.04
2023-05-05T13:55:03.681Z,5.11
2023-05-05T13:58:25.509Z,5.33
2023-05-05T14:01:48.727Z,5.40
2023-05-05T14:05:11.364Z,5.42
2023-05-05T14:08:33.061Z,5.43
2023-05-05T14:11:54.973Z,5.32
2023-05-05T14:15:17.113Z,5.25
2023-05-05T14:18:40.744Z,5.17
2023-05-05T14:22:02.779Z,5.25
2023-05-05T14:25:24.927Z,5.11
2023-05-05T14:28:49.548Z,5.17
2023-05-05T14:32:11.750Z,5.25
2023-05-05T14:35:35.133Z,5.17
2023-05-05T14:38:57.272Z,5.17
2023-05-05T14:42:19.107Z,5.08
2023-05-05T14:45:41.691Z,4.97
2023-05-05T14:49:03.449Z,4.86
2023-05-05T14:52:27.014Z,4.66
2023-05-05T14:55:49.169Z,4.48
2023-05-05T14:59:10.950Z,4.36
2023-05-05T15:02:33.159Z,4.24
2023-05-05T15:09:18.219Z,4.19
2023-05-05T15:12:40.347Z,4.23
2023-05-05T15:16:02.066Z,4.27
2023-05-05T15:19:23.811Z,4.47
2023-05-05T15:22:47.382Z,4.47
2023-05-05T15:26:10.806Z,4.48
2023-05-05T15:29:32.790Z,4.49
2023-05-05T15:32:54.586Z,4.23
2023-05-05T15:36:17.615Z,4.44
2023-05-05T15:39:39.563Z,4.58
2023-05-05T15:43:02.801Z,4.69
2023-05-05T15:46:26.448Z,4.77
2023-05-05T15:49:48.202Z,4.74
2023-05-05T15:53:10.128Z,4.67
2023-05-05T15:56:32.142Z,4.58
2023-05-05T15:59:56.013Z,4.50
2023-05-05T16:03:18.254Z,4.25
2023-05-05T16:06:40.900Z,4.30
2023-05-05T16:10:03.125Z,4.28
2023-05-05T16:13:25.432Z,4.13
2023-05-05T16:16:48.940Z,4.08
2023-05-05T16:20:12.562Z,3.83
2023-05-05T16:23:34.564Z,3.87
2023-05-05T16:26:56.361Z,3.81
2023-05-05T16:30:18.374Z,3.79
2023-05-05T16:33:43.774Z,3.87
2023-05-05T16:37:05.840Z,3.92
2023-05-05T16:40:27.683Z,3.94
2023-05-05T16:43:49.601Z,3.93
2023-05-05T16:47:11.391Z,3.92
2023-05-05T16:50:34.518Z,3.93
2023-05-05T16:53:56.545Z,3.95
2023-05-05T16:57:18.284Z,4.29
2023-05-05T17:00:40.178Z,4.67
2023-05-05T17:04:02.683Z,5.08
2023-05-05T17:07:25.788Z,5.53
2023-05-05T17:10:48.058Z,6.05
2023-05-05T17:14:09.721Z,6.40
2023-05-05T17:17:31.596Z,6.14
2023-05-05T17:20:53.281Z,5.72
2023-05-05T17:24:16.607Z,5.42
2023-05-05T17:27:38.315Z,5.22
2023-05-05T17:31:01.617Z,5.05
2023-05-05T17:34:23.554Z,4.89
2023-05-05T17:37:45.747Z,4.71
2023-05-05T17:41:09.061Z,4.55
2023-05-05T17:44:32.732Z,4.42
2023-05-05T17:47:54.969Z,4.30
2023-05-05T17:51:17.032Z,4.26
2023-05-05T17:54:39.146Z,4.16
2023-05-05T17:58:02.346Z,4.03
2023-05-05T18:01:24.874Z,3.92
2023-05-05T18:04:47.440Z,3.82
2023-05-05T18:08:09.479Z,3.73
2023-05-05T18:11:32.222Z,3.63
2023-05-05T18:14:55.626Z,3.55
2023-05-05T18:18:17.689Z,3.33
2023-05-05T18:21:39.479Z,3.38
2023-05-05T18:25:01.520Z,3.27
2023-05-05T18:28:23.528Z,3.18
2023-05-05T18:31:48.674Z,3.08
2023-05-05T18:35:11.286Z,2.93
2023-05-05T18:38:33.655Z,2.87
2023-05-05T18:41:55.605Z,2.77
2023-05-05T18:45:17.499Z,2.60
2023-05-05T18:48:40.687Z,2.54
2023-05-05T18:52:03.140Z,2.47
2023-05-05T18:55:25.051Z,2.37
2023-05-05T18:58:46.644Z,2.25
2023-05-05T19:02:08.797Z,2.22
2023-05-05T19:05:31.999Z,2.14
2023-05-05T19:08:54.031Z,2.06
2023-05-05T19:12:16.120Z,1.99
2023-05-05T19:15:38.015Z,1.92
2023-05-05T19:19:00.881Z,1.64
2023-05-05T19:22:24.143Z,1.71
2023-05-05T19:25:46.507Z,1.64
2023-05-05T19:29:08.243Z,1.54
2023-05-05T19:32:29.971Z,1.47
2023-05-05T19:35:51.957Z,1.36
2023-05-05T19:39:15.816Z,1.29
2023-05-05T19:42:37.610Z,1.22
2023-05-05T19:45:59.353Z,1.15
2023-05-05T19:49:21.469Z,1.03
2023-05-05T19:52:43.394Z,1.02
2023-05-05T19:56:06.599Z,0.93
2023-05-05T19:59:28.639Z,0.89
2023-05-05T20:02:51.186Z,0.81
2023-05-05T20:06:12.994Z,0.75
2023-05-05T20:09:35.100Z,0.71
2023-05-05T20:12:58.438Z,0.65
2023-05-05T20:16:21.705Z,0.58
2023-05-05T20:19:43.470Z,0.55
2023-05-05T20:23:05.733Z,0.37
2023-05-05T20:26:27.993Z,0.40
2023-05-05T20:29:51.681Z,0.33
2023-05-05T20:33:13.909Z,0.23
2023-05-05T20:36:35.884Z,0.11
2023-05-05T20:39:58.373Z,0.08
2023-05-05T20:43:21.265Z,-0.03
2023-05-05T20:46:44.584Z,-0.19
2023-05-05T20:50:08.131Z,-0.12
2023-05-05T20:53:30.002Z,-0.16
2023-05-05T20:56:53.226Z,-0.22
2023-05-05T21:00:15.431Z,-0.24
2023-05-05T21:03:39.128Z,-0.30
2023-05-05T21:07:01.356Z,-0.33
2023-05-05T21:10:23.359Z,-0.36
2023-05-05T21:13:45.356Z,-0.38
2023-05-05T21:17:07.352Z,-0.39
2023-05-05T21:20:30.685Z,-0.41
2023-05-05T21:23:55.284Z,-0.46
2023-05-05T21:27:17.103Z,-0.51
2023-05-05T21:30:39.272Z,-0.59
2023-05-05T21:34:01.224Z,-0.66
2023-05-05T21:37:24.487Z,-0.65
2023-05-05T21:40:46.811Z,-0.78
2023-05-05T21:44:09.070Z,-0.82
2023-05-05T21:47:31.066Z,-0.79
2023-05-05T21:50:53.300Z,-0.83
2023-05-05T21:54:16.481Z,-0.93
2023-05-05T21:57:38.524Z,-0.92
2023-05-05T22:01:00.647Z,-0.96
2023-05-05T22:04:22.451Z,-1.02
2023-05-05T22:07:44.052Z,-1.09
2023-05-05T22:11:07.640Z,-1.09
2023-05-05T22:14:29.640Z,-1.11
2023-05-05T22:17:51.526Z,-1.10
2023-05-05T22:21:13.230Z,-1.10
2023-05-05T22:24:35.120Z,-1.08
2023-05-05T22:27:58.277Z,-1.05
2023-05-05T22:31:20.386Z,-1.07
2023-05-05T22:34:42.443Z,-1.08
2023-05-05T22:38:04.333Z,-1.11
2023-05-05T22:41:26.325Z,-1.13
2023-05-05T22:44:49.691Z,-1.15
2023-05-05T22:48:12.308Z,-1.24
2023-05-05T22:51:34.456Z,-1.18
2023-05-05T22:54:56.311Z,-1.25
2023-05-05T22:58:18.012Z,-1.26
2023-05-05T23:01:42.059Z,-1.31
2023-05-05T23:05:04.218Z,-1.34
2023-05-05T23:08:26.130Z,-1.39
2023-05-05T23:11:47.958Z,-1.43
2023-05-05T23:15:11.194Z,-1.47
2023-05-05T23:18:35.103Z,-1.54
2023-05-05T23:21:56.995Z,-1.52
2023-05-05T23:25:18.847Z,-1.50
2023-05-05T23:28:40.646Z,-1.54
2023-05-05T23:32:02.761Z,-1.59
2023-05-05T23:35:26.397Z,-1.69
2023-05-05T23:38:48.356Z,-1.74
2023-05-05T23:42:10.136Z,-1.82
2023-05-05T23:45:32.007Z,-1.94
2023-05-05T23:48:54.639Z,-2.01
2023-05-05T23:52:18.091Z,-2.13
2023-05-05T23:55:39.691Z,-2.24
2023-05-05T23:59:01.439Z,-2.32
